Aérodrome :
LOGIN :

S'inscrire | Disclaimer

   EN    FR    IT 

 










Légende :    VFR   VFR Marginal   IFR   IFR Intensif   IFR Très Intensif
Visi : 
Plafond : 
>= 8 km
>= 3000ft
5 à 8 km
1000 à 3000 ft
1500m à 5 km
500 à 1000 ft
800 à 1500m
200 à 500 ft
< 800m
< 200 ft
Symboles :   Orages  Brouillard  Fortes neiges  Fortes précipitations  Vent > 20 kt
SIGMETs :   Divers  Orages  Givrage  Turbulence  Onde Orograph.  Cendres Volcan.






- Altitude de l'aérodrome : 1367 ft
- Code IATA : FDH


EDNY - Friedrichshafen

DERNIER METAR :
  • 150120Z AUTO 06003KT 9999 // OVC120/// 17/16 Q1017

METARs EXPIRÉS :
  • 150050Z AUTO 08002KT 9999 // FEW079/// BKN120/// 17/17 Q1017
  • 150020Z AUTO 00000KT 9999 // FEW050/// BKN120/// 17/17 Q1017
  • 142350Z AUTO VRB02KT 9999 // SCT030/// OVC120/// 17/17 Q1017
  • 142320Z AUTO 04001KT 9999 // SCT032/// SCT042/// BKN120/// 17/17 Q1017

TAF TAF EDNY
Valide du 15 à 00h jusqu'au 16 à 00h UTC


142300Z 1500/1524 05003KT 9999 SCT020
TEMPO 1503/1506 2000 BR
TEMPO 1508/1514 24005KT



MET'MAP, la Météo Aéronautique d'un coup d'oeil ! - Copyright ORBIFLY Décembre 2007 - Disclaimer

ORBIFLY MET'MAP TEAM :

Programmation & Développement : Alexandra Zaïnal
Sur une idée originale de : Baudouin d'Aumeries
Assistance à la programmation : Marc-Olivier Méhu
Soutien technique & logistique : Manuel Goepfert

Contact : metmap@orbifly.com




SOURCES & CREDITS :

   NOAA